Terminal Aerodrome Forecast
Issued by NWS Wilmington, OH

Current Version | Previous Version | Text Only | Print | Product List | Glossary Off
Versions: 1 2 3 4 5 6 7 8 9 10 11 12 13 14 15 16 17 18 19 20 21 22 23 24 25 26

000
FTUS41 KILN 160800 AAA
TAFCVG
TAF AMD
KCVG 160844Z 1609/1712 VRB03KT P6SM SKC
     FM161400 11010KT P6SM SCT250
     FM170000 13006KT P6SM BKN250=

USA.gov is the U.S. government's official web portal to all federal, state and local government web resources and services.